Airport ID:KO05
Update Time (UTC):03/10/2022 09:18
Wind Speed (Knots):1
Wind Direction (Magnetic):280
Temperature (°C):8
Dew Point (°C):4
Humidity (%):78
Altimeter (inHg):30.17
Density Altitude (Feet):
Visibility:10+
Clouds (Hundreds of feet):FEW038 SCT043 BKN060
Present Weather:
METAR:METAR KO05 030915Z AUTO 00000KT 10SM SCT041 SCT049 BKN055 08/04 A3017 RMK A01

The data displayed is for advisory purposes only and is not to be used for flight planning or operations.